首页
METAR-TAF:

METAR-TAF

机场 :

羅蘭加洛斯機場

圣但尼, 留尼汪岛

纬度: 20-53S, 经度: 055-31E, 海拔: 21米

当前天气观测

该预报发布于35分钟前的00:30 UTC
风速3节,风向多变
温度 22°C
湿度 78%
气压 1014 hPa
能见度10公里或以上
1500米以下无云,无积雨云

METAR: FMEE 130030Z AUTO VRB03KT CAVOK 22/18 Q1014 NOSIG

时间: 05:05 (01:05 UTC)

预报

该预报发布于2小时和5分钟前的23:00 UTC
预报有效从13日的 00点(UTC)到 14日的 06点(UTC)
风速5节,风向
能见度10公里或以上
散云层高于2500英尺
成为
从 13日的 06点(UTC)到 13日的 08点(UTC)
风速12节,风向
成为
从 13日的 14点(UTC)到 13日的 16点(UTC)
风速5节,风向
成为
从 14日的 04点(UTC)到 14日的 06点(UTC)
风速12节,风向

TAF: FMEE 122300Z 1300/1406 18005KT 9999 SCT025 BECMG 1306/1308 08012KT BECMG 1314/1316 18005KT BECMG 1404/1406 08012KT

超过4000个机场的气象观测和天气预报(METAR&TAF报告)。

可查询的气象台以黄色和红色小点在地图上表示。

将鼠标移到小点上方,可查看气象台名称。

然后点击查看天气观测和预报。

如需切换地图:点击带黑十字的绿色按钮放大地图;点击带横线的绿色按钮缩小地图;或者点击绿色箭头查看邻近地区的地图。


METAR-TAF: